Time;durP1;ratioP1;P1;durP2;ratioP2;P2;SDS_P1;SDS_P2;PMS_P1;PMS_P2;Temp;Humidity;BMP_temperature;BMP_pressure;BME280_temperature;BME280_humidity;BME280_pressure;Samples;Min_cycle;Max_cycle;Signal;HPM_P1;HPM_P2
2022/01/30 00:03:15;;;;;;;4.03;0.85;;;20.90;68.60;;;;;;7843507;28;20243;-54
2022/01/30 00:07:01;;;;;;;2.40;0.82;;;20.90;68.70;;;;;;7843403;28;20170;-52
2022/01/30 00:10:52;;;;;;;3.55;1.08;;;20.80;68.40;;;;;;7843001;28;20668;-56
2022/01/30 00:14:38;;;;;;;4.65;0.70;;;20.80;68.70;;;;;;7843498;28;20178;-57
2022/01/30 00:18:40;;;;;;;3.75;0.73;;;20.80;68.60;;;;;;7843305;28;20240;-56
2022/01/30 00:26:18;;;;;;;1.90;0.90;;;20.70;68.40;;;;;;7843543;28;20174;-52
2022/01/30 00:30:05;;;;;;;3.83;0.90;;;20.70;68.50;;;;;;7842731;28;20688;-52
2022/01/30 00:33:51;;;;;;;2.70;0.60;;;20.60;68.40;;;;;;7842984;28;20208;-52
2022/01/30 00:37:40;;;;;;;3.15;0.90;;;20.60;68.50;;;;;;7842418;28;20289;-53
2022/01/30 00:41:26;;;;;;;2.92;0.63;;;20.60;68.50;;;;;;7842415;28;20675;-52
2022/01/30 00:45:12;;;;;;;2.55;0.80;;;20.60;68.60;;;;;;7842252;28;20603;-54
2022/01/30 00:48:57;;;;;;;2.22;0.88;;;20.50;68.40;;;;;;7841917;28;20202;-55
2022/01/30 00:52:43;;;;;;;4.15;1.00;;;20.50;68.50;;;;;;7842114;28;20668;-53
2022/01/30 00:56:29;;;;;;;2.92;0.77;;;20.40;68.50;;;;;;7841977;28;20339;-52
2022/01/30 01:00:15;;;;;;;2.10;0.70;;;20.40;68.40;;;;;;7841429;28;20687;-52
2022/01/30 01:04:02;;;;;;;2.28;0.80;;;20.40;68.40;;;;;;7841820;28;20182;-53
2022/01/30 01:07:49;;;;;;;2.58;0.70;;;20.40;68.40;;;;;;7841404;28;20260;-55
2022/01/30 01:23:37;;;;;;;1.83;0.70;;;20.20;68.40;;;;;;7840992;28;20174;-56
2022/01/30 01:27:23;;;;;;;1.48;0.60;;;20.20;68.30;;;;;;7841197;28;20186;-55
2022/01/30 01:31:08;;;;;;;2.15;0.70;;;20.10;68.20;;;;;;7840811;28;20225;-54
2022/01/30 01:34:54;;;;;;;6.90;1.20;;;20.10;68.30;;;;;;7840913;28;20178;-53
2022/01/30 01:38:39;;;;;;;3.67;1.13;;;20.00;68.60;;;;;;7840363;28;20288;-54
2022/01/30 01:42:29;;;;;;;2.03;0.90;;;20.00;68.30;;;;;;7840876;28;20202;-55
2022/01/30 01:46:19;;;;;;;1.88;0.85;;;20.00;67.80;;;;;;7840340;28;20186;-52
2022/01/30 01:50:05;;;;;;;1.30;0.75;;;20.00;68.30;;;;;;7840116;28;20198;-52
2022/01/30 01:53:56;;;;;;;3.08;0.90;;;19.90;68.50;;;;;;7839741;28;20189;-57
2022/01/30 01:57:41;;;;;;;4.45;1.02;;;19.90;68.30;;;;;;7839998;28;20216;-55
2022/01/30 02:01:28;;;;;;;4.18;1.10;;;19.90;68.10;;;;;;7840026;28;20193;-57
2022/01/30 02:05:14;;;;;;;2.33;1.02;;;19.80;67.80;;;;;;7840033;28;20170;-55
2022/01/30 02:09:06;;;;;;;3.63;0.82;;;19.80;68.40;;;;;;7839594;28;20343;-52
2022/01/30 02:12:55;;;;;;;2.25;0.77;;;19.80;68.40;;;;;;7839831;28;20216;-57
2022/01/30 02:25:22;;;;;;;2.40;0.75;;;19.70;68.10;;;;;;7836224;28;20308;-53
2022/01/30 02:29:08;;;;;;;1.83;0.80;;;19.70;67.50;;;;;;7839027;28;20274;-54
2022/01/30 02:32:55;;;;;;;3.00;0.73;;;19.70;68.30;;;;;;7839252;28;20174;-53
2022/01/30 02:36:47;;;;;;;2.20;0.65;;;19.70;68.10;;;;;;7838977;28;20174;-53
2022/01/30 02:40:38;;;;;;;3.72;0.70;;;19.60;67.80;;;;;;7838452;28;20218;-54
2022/01/30 02:44:34;;;;;;;2.70;0.90;;;19.70;67.50;;;;;;7838837;28;20261;-52
2022/01/30 02:48:30;;;;;;;1.27;0.77;;;19.60;68.20;;;;;;7838321;28;20221;-52
2022/01/30 02:52:16;;;;;;;4.72;1.35;;;19.60;68.10;;;;;;7838808;28;20224;-52
2022/01/30 02:56:01;;;;;;;2.40;0.90;;;19.50;67.30;;;;;;7838597;28;20182;-53
2022/01/30 02:59:47;;;;;;;2.47;0.80;;;19.50;67.70;;;;;;7838064;28;20236;-55
2022/01/30 03:03:32;;;;;;;2.25;0.80;;;19.50;68.10;;;;;;7838001;28;20185;-53
2022/01/30 03:07:18;;;;;;;2.88;1.00;;;19.40;68.20;;;;;;7837957;28;20579;-53
2022/01/30 03:11:04;;;;;;;5.80;1.00;;;19.40;68.30;;;;;;7838034;28;20204;-54
2022/01/30 03:14:49;;;;;;;3.92;1.25;;;19.40;68.20;;;;;;7838754;28;20181;-54
2022/01/30 03:18:36;;;;;;;2.33;0.80;;;19.40;68.30;;;;;;7838137;28;20220;-57
2022/01/30 03:22:22;;;;;;;1.88;0.73;;;19.40;67.90;;;;;;7838456;28;20182;-54
2022/01/30 03:26:09;;;;;;;1.55;0.63;;;19.30;68.30;;;;;;7838029;28;20202;-55
2022/01/30 03:30:03;;;;;;;4.03;0.95;;;19.40;68.20;;;;;;7837673;28;20195;-52
2022/01/30 03:33:49;;;;;;;2.88;0.70;;;19.30;67.80;;;;;;7837942;28;20173;-57
2022/01/30 03:37:34;;;;;;;4.32;1.48;;;19.30;68.20;;;;;;7837698;28;20259;-53
2022/01/30 03:41:20;;;;;;;4.95;1.08;;;19.30;67.80;;;;;;7837738;28;20292;-54
2022/01/30 03:45:06;;;;;;;4.47;0.95;;;19.30;68.20;;;;;;7837564;28;20174;-52
2022/01/30 03:48:51;;;;;;;3.65;1.15;;;19.30;68.00;;;;;;7837348;28;20204;-52
2022/01/30 03:52:37;;;;;;;2.90;0.90;;;19.20;67.40;;;;;;7837607;28;20186;-55
2022/01/30 03:56:22;;;;;;;2.83;1.02;;;19.20;68.40;;;;;;7837533;28;20226;-54
2022/01/30 04:00:08;;;;;;;5.18;1.33;;;19.20;67.60;;;;;;7837162;28;20225;-54
2022/01/30 04:03:54;;;;;;;5.30;1.00;;;19.20;67.50;;;;;;7837266;28;20208;-53
2022/01/30 04:07:40;;;;;;;5.20;0.90;;;19.20;67.80;;;;;;7836667;28;20182;-57
2022/01/30 04:11:25;;;;;;;7.20;1.08;;;19.20;68.00;;;;;;7837078;28;20206;-57
2022/01/30 04:15:12;;;;;;;7.13;0.98;;;19.20;68.10;;;;;;7837633;28;20356;-55
2022/01/30 04:18:57;;;;;;;3.55;0.90;;;19.20;68.20;;;;;;7842806;28;20220;-56
2022/01/30 04:22:43;;;;;;;4.40;1.33;;;19.10;68.10;;;;;;7842940;28;20178;-52
2022/01/30 04:26:29;;;;;;;6.03;1.00;;;19.10;68.10;;;;;;7843342;28;20174;-53
2022/01/30 04:30:15;;;;;;;8.80;1.25;;;19.10;68.10;;;;;;7842607;28;20201;-53
2022/01/30 04:34:01;;;;;;;8.15;1.10;;;19.10;68.20;;;;;;7842756;28;20265;-54
2022/01/30 04:41:58;;;;;;;4.05;1.00;;;19.00;68.00;;;;;;7842567;28;20166;-53
2022/01/30 04:58:02;;;;;;;4.10;0.93;;;19.00;68.20;;;;;;7841622;28;20679;-53
2022/01/30 05:09:29;;;;;;;3.22;0.98;;;18.90;67.40;;;;;;7823035;28;20205;-52
2022/01/30 05:13:18;;;;;;;2.78;0.80;;;18.90;67.70;;;;;;7810616;28;20190;-54
2022/01/30 05:17:05;;;;;;;3.22;1.00;;;18.90;67.60;;;;;;7810389;28;20205;-54
2022/01/30 05:20:51;;;;;;;3.47;1.02;;;18.90;67.40;;;;;;7827007;28;20206;-52
2022/01/30 05:24:37;;;;;;;4.40;0.80;;;18.90;67.70;;;;;;7809901;28;20209;-52
2022/01/30 05:28:23;;;;;;;7.38;1.20;;;18.90;67.70;;;;;;7825711;28;20197;-53
2022/01/30 05:32:09;;;;;;;11.00;1.95;;;18.90;67.10;;;;;;7841261;28;20577;-54
2022/01/30 05:35:55;;;;;;;9.50;1.77;;;18.90;66.70;;;;;;7841043;28;20261;-54
2022/01/30 05:39:40;;;;;;;14.00;2.03;;;18.80;65.40;;;;;;7825738;28;20226;-54
2022/01/30 05:43:29;;;;;;;7.22;1.92;;;18.80;66.40;;;;;;7823391;28;20220;-52
2022/01/30 05:47:23;;;;;;;8.20;1.70;;;18.80;65.80;;;;;;7819281;28;20205;-53
2022/01/30 05:51:09;;;;;;;7.15;1.35;;;18.90;66.00;;;;;;7809590;28;20218;-54
2022/01/30 05:54:54;;;;;;;13.48;2.33;;;18.90;66.00;;;;;;7815588;28;20315;-56
2022/01/30 05:58:40;;;;;;;9.90;1.75;;;18.90;66.30;;;;;;7811711;28;20210;-54
2022/01/30 06:02:26;;;;;;;8.02;1.45;;;18.90;64.60;;;;;;7813415;28;20535;-56
2022/01/30 06:06:13;;;;;;;6.90;1.50;;;18.90;64.50;;;;;;7837448;28;20182;-52
2022/01/30 06:09:58;;;;;;;15.43;1.90;;;18.90;65.90;;;;;;7839502;28;20228;-57
2022/01/30 06:13:44;;;;;;;16.50;1.85;;;18.90;66.40;;;;;;7839670;28;20641;-53
2022/01/30 06:17:29;;;;;;;19.00;2.20;;;19.00;66.60;;;;;;7831920;28;20215;-54
2022/01/30 06:21:14;;;;;;;8.40;1.98;;;19.10;66.20;;;;;;7808106;28;20203;-52
2022/01/30 06:25:00;;;;;;;11.98;2.00;;;19.20;66.40;;;;;;7808319;28;20179;-55
2022/01/30 06:28:45;;;;;;;41.40;2.80;;;19.30;66.50;;;;;;7807840;28;20206;-52
2022/01/30 06:32:31;;;;;;;14.63;2.20;;;19.30;66.60;;;;;;7818707;28;20558;-52
2022/01/30 06:36:16;;;;;;;25.45;3.97;;;19.50;67.30;;;;;;7839004;28;20185;-52
2022/01/30 06:40:03;;;;;;;10.63;1.60;;;19.60;67.40;;;;;;7822671;28;20594;-52
2022/01/30 06:43:48;;;;;;;20.02;2.22;;;19.70;67.40;;;;;;7808881;28;20190;-52
2022/01/30 06:47:41;;;;;;;15.00;2.00;;;19.90;67.40;;;;;;7807451;28;20221;-54
2022/01/30 06:51:27;;;;;;;11.30;2.08;;;20.00;67.60;;;;;;7825554;28;20205;-53
2022/01/30 06:55:12;;;;;;;16.33;1.75;;;20.10;67.40;;;;;;7822333;28;20656;-52
2022/01/30 06:58:58;;;;;;;21.83;2.85;;;20.20;67.30;;;;;;7807167;28;20710;-54
2022/01/30 07:02:44;;;;;;;20.95;2.70;;;20.40;68.10;;;;;;7807486;28;20217;-51
2022/01/30 07:06:30;;;;;;;60.08;3.65;;;20.60;68.10;;;;;;7822223;28;20190;-52
2022/01/30 07:10:16;;;;;;;57.80;4.22;;;20.70;68.00;;;;;;7837833;28;20256;-51
2022/01/30 07:14:01;;;;;;;59.60;4.63;;;20.80;68.10;;;;;;7838251;28;20179;-52
2022/01/30 07:17:47;;;;;;;68.28;5.30;;;20.80;67.30;;;;;;7815069;28;20206;-52
2022/01/30 07:21:33;;;;;;;53.50;3.88;;;20.80;67.20;;;;;;7823021;28;20197;-54
2022/01/30 07:25:19;;;;;;;69.55;4.97;;;20.80;67.20;;;;;;7826489;28;20269;-52
2022/01/30 07:29:04;;;;;;;45.25;5.68;;;20.90;67.00;;;;;;7822622;28;20699;-54
2022/01/30 07:32:50;;;;;;;44.88;3.42;;;21.00;67.00;;;;;;7835988;28;20695;-54
2022/01/30 07:36:37;;;;;;;41.25;3.58;;;21.00;66.90;;;;;;7832496;28;20174;-52
2022/01/30 07:40:22;;;;;;;47.88;3.63;;;21.00;67.70;;;;;;7834692;28;20210;-55
2022/01/30 07:44:08;;;;;;;29.45;3.28;;;21.00;67.20;;;;;;7821066;28;20696;-52
2022/01/30 07:47:53;;;;;;;29.25;3.10;;;21.00;66.70;;;;;;7812870;28;20287;-54
2022/01/30 07:51:39;;;;;;;15.95;2.63;;;20.90;66.60;;;;;;7824714;28;20236;-55
2022/01/30 07:55:24;;;;;;;21.25;3.25;;;20.90;66.60;;;;;;7815309;28;20186;-56
2022/01/30 07:59:10;;;;;;;29.52;3.95;;;20.90;66.50;;;;;;7817154;28;20661;-52
2022/01/30 08:02:55;;;;;;;28.48;3.45;;;20.80;66.60;;;;;;7830504;28;20201;-52
2022/01/30 08:06:41;;;;;;;28.95;3.38;;;20.90;66.60;;;;;;7813700;28;20167;-53
2022/01/30 08:10:26;;;;;;;35.65;3.55;;;20.80;66.60;;;;;;7832171;28;20205;-54
2022/01/30 08:14:12;;;;;;;29.65;2.67;;;20.80;66.70;;;;;;7822362;28;20183;-55
2022/01/30 08:17:57;;;;;;;20.85;2.75;;;20.80;66.70;;;;;;7829402;28;20285;-55
2022/01/30 08:21:43;;;;;;;27.45;2.75;;;20.80;66.80;;;;;;7817822;28;20175;-53
2022/01/30 08:25:28;;;;;;;32.90;3.55;;;20.90;66.80;;;;;;7810697;28;20197;-53
2022/01/30 08:29:14;;;;;;;27.02;3.40;;;20.90;66.70;;;;;;7812089;28;20206;-56
2022/01/30 08:32:59;;;;;;;31.55;3.50;;;20.90;66.50;;;;;;7833691;28;20722;-55
2022/01/30 08:36:45;;;;;;;18.27;2.70;;;20.90;66.60;;;;;;7840746;28;20186;-52
2022/01/30 08:40:30;;;;;;;21.20;3.00;;;21.00;66.70;;;;;;7838720;28;20225;-53
2022/01/30 08:44:16;;;;;;;23.60;3.65;;;20.90;66.50;;;;;;7830292;28;20229;-52
2022/01/30 08:48:02;;;;;;;15.80;3.33;;;20.90;65.80;;;;;;7811764;28;20194;-52
2022/01/30 08:51:47;;;;;;;16.88;3.80;;;20.90;66.10;;;;;;7812041;28;20217;-51
2022/01/30 08:55:33;;;;;;;26.60;4.90;;;20.90;66.40;;;;;;7813248;28;20187;-53
2022/01/30 08:59:18;;;;;;;20.02;2.80;;;21.00;66.60;;;;;;7835841;28;20292;-52
2022/01/30 09:03:04;;;;;;;21.42;4.38;;;21.10;66.80;;;;;;7834295;28;20572;-51
2022/01/30 09:06:50;;;;;;;22.35;2.90;;;21.20;67.80;;;;;;7831378;28;20205;-52
2022/01/30 09:10:38;;;;;;;17.38;3.17;;;21.20;67.10;;;;;;7839590;28;20340;-56
2022/01/30 09:14:25;;;;;;;11.65;3.05;;;21.20;66.90;;;;;;7839293;28;20559;-53
2022/01/30 09:18:11;;;;;;;18.70;3.80;;;21.20;67.10;;;;;;7811151;28;20210;-52
2022/01/30 09:21:56;;;;;;;22.40;3.50;;;21.30;67.50;;;;;;7811314;28;20175;-52
2022/01/30 09:25:42;;;;;;;14.90;3.22;;;21.30;67.70;;;;;;7811398;28;20182;-52
2022/01/30 09:29:28;;;;;;;17.60;3.58;;;21.40;67.80;;;;;;7810539;28;20218;-52
2022/01/30 09:33:14;;;;;;;16.80;3.15;;;21.40;67.90;;;;;;7817182;28;20202;-54
2022/01/30 09:37:00;;;;;;;15.48;3.08;;;21.40;67.70;;;;;;7838851;28;20193;-54
2022/01/30 09:40:46;;;;;;;17.42;3.53;;;21.40;67.70;;;;;;7838748;28;20221;-52
2022/01/30 09:44:38;;;;;;;24.67;3.60;;;21.40;68.00;;;;;;7837151;28;20197;-53
2022/01/30 09:48:24;;;;;;;22.85;3.67;;;21.40;68.50;;;;;;7828850;28;20218;-51
2022/01/30 09:52:10;;;;;;;25.40;3.60;;;21.40;68.60;;;;;;7808982;28;20663;-52
2022/01/30 09:55:56;;;;;;;12.43;2.72;;;21.40;68.70;;;;;;7809358;28;20190;-54
2022/01/30 09:59:41;;;;;;;10.75;3.25;;;21.40;69.00;;;;;;7824553;28;20217;-54
2022/01/30 10:03:27;;;;;;;13.55;2.55;;;21.40;69.00;;;;;;7837374;28;20177;-54
2022/01/30 10:07:14;;;;;;;15.38;3.17;;;21.40;69.00;;;;;;7828847;28;20187;-53
2022/01/30 10:11:15;;;;;;;20.77;3.20;;;21.40;68.80;;;;;;7836252;28;20831;-52
2022/01/30 10:15:05;;;;;;;12.00;3.15;;;21.40;68.70;;;;;;7832186;28;20231;-55
2022/01/30 10:18:51;;;;;;;19.85;2.30;;;21.40;68.90;;;;;;7836123;28;20681;-55
2022/01/30 10:22:54;;;;;;;31.00;4.65;;;21.40;68.70;;;;;;7825713;28;20555;-55
2022/01/30 10:26:40;;;;;;;16.23;2.85;;;21.40;69.00;;;;;;7827810;28;20170;-55
2022/01/30 10:30:25;;;;;;;13.60;2.85;;;21.40;69.00;;;;;;7825677;28;20255;-55
2022/01/30 10:34:19;;;;;;;26.55;3.10;;;21.30;68.80;;;;;;7819891;28;20190;-57
2022/01/30 10:38:17;;;;;;;19.70;3.28;;;21.20;68.80;;;;;;7808613;28;20264;-52
2022/01/30 10:42:03;;;;;;;21.75;2.50;;;21.20;68.20;;;;;;7817632;28;20170;-52
2022/01/30 10:45:49;;;;;;;21.58;2.72;;;21.20;68.80;;;;;;7812870;28;20194;-53
2022/01/30 10:49:44;;;;;;;14.38;3.10;;;21.10;68.50;;;;;;7813506;28;20194;-55
2022/01/30 10:53:37;;;;;;;20.15;2.50;;;21.10;68.80;;;;;;7807619;28;20185;-51
2022/01/30 10:57:23;;;;;;;18.70;3.30;;;21.10;68.80;;;;;;7807524;28;20175;-55
2022/01/30 11:01:21;;;;;;;19.77;2.60;;;21.10;68.90;;;;;;7806318;28;20683;-52
2022/01/30 11:05:12;;;;;;;26.13;3.05;;;21.10;68.80;;;;;;7807700;28;20257;-51
2022/01/30 11:09:12;;;;;;;14.50;2.58;;;21.10;68.80;;;;;;7805774;28;20202;-53
2022/01/30 11:13:08;;;;;;;23.08;3.10;;;21.10;68.80;;;;;;7806826;28;20186;-51
2022/01/30 11:17:02;;;;;;;25.05;3.45;;;21.10;68.70;;;;;;7807216;28;20186;-52
2022/01/30 11:20:49;;;;;;;19.02;3.30;;;21.00;68.30;;;;;;7806782;28;20241;-55
2022/01/30 11:24:43;;;;;;;23.67;3.28;;;21.00;67.70;;;;;;7806899;28;20171;-57
2022/01/30 11:28:28;;;;;;;21.05;3.42;;;20.90;68.50;;;;;;7805257;28;20202;-51
2022/01/30 11:32:16;;;;;;;15.20;3.13;;;20.90;68.50;;;;;;7806377;28;20179;-53
2022/01/30 11:36:02;;;;;;;18.30;3.10;;;20.90;68.40;;;;;;7807034;28;20209;-52
2022/01/30 11:39:51;;;;;;;12.82;2.65;;;20.80;68.20;;;;;;7806520;28;20214;-53
2022/01/30 11:43:37;;;;;;;16.35;3.38;;;20.80;68.10;;;;;;7809571;28;20592;-53
2022/01/30 11:47:24;;;;;;;16.67;3.10;;;20.80;68.10;;;;;;7837365;28;20232;-52
2022/01/30 11:51:09;;;;;;;31.10;3.13;;;20.80;68.40;;;;;;7837353;28;20199;-52
2022/01/30 11:54:57;;;;;;;18.13;3.63;;;20.80;68.40;;;;;;7837728;28;20193;-52
2022/01/30 11:58:46;;;;;;;23.38;3.40;;;20.80;68.40;;;;;;7837049;28;20224;-54
2022/01/30 12:02:34;;;;;;;13.13;2.88;;;20.80;68.40;;;;;;7837434;28;20174;-51
2022/01/30 12:06:19;;;;;;;16.02;2.97;;;20.80;68.60;;;;;;7837538;28;20300;-51
2022/01/30 12:10:20;;;;;;;14.27;2.70;;;20.80;68.70;;;;;;7835847;28;20202;-54
2022/01/30 12:14:10;;;;;;;13.75;3.17;;;20.70;68.70;;;;;;7837275;28;20181;-54
2022/01/30 12:17:55;;;;;;;15.60;2.67;;;20.70;68.60;;;;;;7837213;28;20205;-53
2022/01/30 12:21:41;;;;;;;16.98;2.63;;;20.70;68.80;;;;;;7837398;28;20221;-54
2022/01/30 12:25:34;;;;;;;14.70;2.58;;;20.60;68.20;;;;;;7837434;28;20261;-53
2022/01/30 12:29:43;;;;;;;16.17;2.60;;;20.60;68.30;;;;;;7837176;28;20209;-54
2022/01/30 12:33:33;;;;;;;11.80;2.42;;;20.60;68.20;;;;;;7837238;28;20644;-52
2022/01/30 12:37:20;;;;;;;15.95;2.80;;;20.60;68.00;;;;;;7839237;28;20182;-53
2022/01/30 12:41:14;;;;;;;9.82;2.30;;;20.50;68.00;;;;;;7827596;28;20209;-56
2022/01/30 12:45:01;;;;;;;18.42;3.10;;;20.50;67.60;;;;;;7826365;28;20259;-53
2022/01/30 12:49:04;;;;;;;14.80;2.80;;;20.50;67.50;;;;;;7873174;28;20242;-55
2022/01/30 12:52:50;;;;;;;22.80;3.55;;;20.50;67.90;;;;;;7873888;28;20173;-52
2022/01/30 12:56:38;;;;;;;18.60;3.55;;;20.50;67.60;;;;;;7873583;28;20243;-55
2022/01/30 13:00:24;;;;;;;19.83;3.53;;;20.50;67.70;;;;;;7838978;28;20213;-56
2022/01/30 13:04:14;;;;;;;11.50;3.08;;;20.50;67.80;;;;;;7873479;28;20173;-56
2022/01/30 13:08:00;;;;;;;18.35;3.63;;;20.50;67.50;;;;;;7872661;28;20169;-52
2022/01/30 13:11:46;;;;;;;17.63;3.97;;;20.50;67.40;;;;;;7872827;28;20264;-52
2022/01/30 13:15:38;;;;;;;10.32;2.70;;;20.60;67.10;;;;;;7873895;28;20173;-53
2022/01/30 13:19:44;;;;;;;15.07;2.80;;;20.50;67.30;;;;;;7872110;28;20209;-52
2022/01/30 13:23:29;;;;;;;13.40;3.67;;;20.60;67.40;;;;;;7872459;28;20185;-54
2022/01/30 13:27:15;;;;;;;22.45;3.85;;;20.60;66.50;;;;;;7872305;28;20192;-53
2022/01/30 13:31:13;;;;;;;29.20;5.20;;;20.70;67.00;;;;;;7871754;28;20220;-54
2022/01/30 13:34:59;;;;;;;12.50;3.08;;;20.60;66.50;;;;;;7872122;28;20207;-56
2022/01/30 13:38:45;;;;;;;21.13;4.55;;;20.70;66.90;;;;;;7871866;28;20205;-56
2022/01/30 13:50:45;;;;;;;16.48;4.10;;;20.70;66.70;;;;;;7870533;28;20824;-52
2022/01/30 13:54:30;;;;;;;13.88;3.90;;;20.80;66.70;;;;;;7871516;28;20170;-52
2022/01/30 13:58:16;;;;;;;16.65;3.80;;;20.90;66.80;;;;;;7870814;28;20300;-57
2022/01/30 14:02:04;;;;;;;16.35;3.47;;;21.00;66.70;;;;;;7871457;28;20177;-52
2022/01/30 14:05:50;;;;;;;16.02;3.67;;;21.10;66.80;;;;;;7871546;28;20207;-55
2022/01/30 14:09:43;;;;;;;17.60;2.95;;;21.20;66.80;;;;;;7871246;28;20201;-54
2022/01/30 14:13:40;;;;;;;9.45;2.70;;;21.30;66.80;;;;;;7871270;28;20554;-57
2022/01/30 14:17:26;;;;;;;11.93;2.92;;;21.40;66.70;;;;;;7871127;28;20173;-54
2022/01/30 14:21:16;;;;;;;15.25;3.28;;;21.50;66.60;;;;;;7870830;28;20201;-52
2022/01/30 14:25:05;;;;;;;9.80;2.90;;;21.60;66.40;;;;;;7871857;28;20200;-54
2022/01/30 14:29:20;;;;;;;11.48;2.78;;;21.80;66.30;;;;;;7870149;28;20614;-56
2022/01/30 14:33:06;;;;;;;8.75;2.80;;;21.80;66.20;;;;;;7870726;28;20224;-56
2022/01/30 14:36:58;;;;;;;11.88;3.30;;;21.90;66.10;;;;;;7870188;28;20185;-54
2022/01/30 14:40:43;;;;;;;14.88;3.38;;;22.00;66.30;;;;;;7869777;28;20224;-57
2022/01/30 14:44:29;;;;;;;13.77;3.13;;;22.10;66.40;;;;;;7869878;28;20177;-55
2022/01/30 14:48:14;;;;;;;15.98;3.28;;;22.20;66.30;;;;;;7869079;28;20674;-57
2022/01/30 14:52:01;;;;;;;10.18;2.85;;;22.20;66.40;;;;;;7869810;28;20199;-57
2022/01/30 14:55:46;;;;;;;13.00;3.00;;;22.30;66.50;;;;;;7853845;28;20190;-54
2022/01/30 14:59:32;;;;;;;13.88;2.75;;;22.30;66.50;;;;;;7838082;28;20210;-53
2022/01/30 15:03:17;;;;;;;8.55;2.33;;;22.40;66.50;;;;;;7825501;28;20179;-52
2022/01/30 15:07:04;;;;;;;12.20;2.80;;;22.40;66.50;;;;;;7807534;28;20178;-52
2022/01/30 15:10:50;;;;;;;7.28;2.40;;;22.40;66.50;;;;;;7806161;28;20206;-53
2022/01/30 15:14:37;;;;;;;18.80;3.40;;;22.40;66.50;;;;;;7808480;28;20218;-55
2022/01/30 15:18:30;;;;;;;11.10;2.50;;;22.40;66.70;;;;;;7806968;28;20214;-56
2022/01/30 15:22:16;;;;;;;8.95;2.63;;;22.40;66.40;;;;;;7807340;28;20653;-54
2022/01/30 15:26:02;;;;;;;9.20;3.15;;;22.40;66.30;;;;;;7812489;28;20649;-55
2022/01/30 15:29:48;;;;;;;14.48;2.92;;;22.40;66.20;;;;;;7828160;28;20593;-52
2022/01/30 15:33:34;;;;;;;11.75;3.05;;;22.40;66.50;;;;;;7838140;28;20216;-56
2022/01/30 15:37:19;;;;;;;10.88;2.63;;;22.30;66.10;;;;;;7838102;28;20185;-56
2022/01/30 15:41:05;;;;;;;12.82;3.45;;;22.30;66.00;;;;;;7837499;28;20206;-52
2022/01/30 15:52:40;;;;;;;18.63;3.25;;;22.20;65.90;;;;;;7807313;28;20183;-54
2022/01/30 15:56:30;;;;;;;9.95;2.53;;;22.20;65.80;;;;;;7805342;28;20237;-56
2022/01/30 16:00:16;;;;;;;12.77;3.05;;;22.20;65.90;;;;;;7805493;28;20237;-54
2022/01/30 16:04:02;;;;;;;10.85;3.47;;;22.10;65.40;;;;;;7806868;28;20175;-57
2022/01/30 16:07:48;;;;;;;9.32;2.70;;;22.10;65.80;;;;;;7806670;28;20190;-56
2022/01/30 16:15:36;;;;;;;11.45;3.15;;;22.10;65.50;;;;;;7812467;28;20256;-56
2022/01/30 16:19:22;;;;;;;16.42;3.53;;;22.00;65.50;;;;;;7811922;28;20264;-56
2022/01/30 16:23:09;;;;;;;16.95;4.35;;;22.00;63.20;;;;;;7812281;28;20203;-56
2022/01/30 16:26:55;;;;;;;22.00;4.28;;;21.70;60.80;;;;;;7812218;28;20792;-55
2022/01/30 16:30:40;;;;;;;13.88;3.25;;;21.70;62.70;;;;;;7812272;28;20605;-56
2022/01/30 16:34:26;;;;;;;13.02;3.38;;;21.60;63.20;;;;;;7811923;28;20197;-55
2022/01/30 16:38:11;;;;;;;19.15;4.30;;;21.70;62.70;;;;;;7811786;28;20588;-53
2022/01/30 16:41:57;;;;;;;22.67;4.53;;;21.70;62.90;;;;;;7811682;28;20193;-56
2022/01/30 16:45:48;;;;;;;21.02;4.78;;;21.70;63.70;;;;;;7811437;28;20186;-56
2022/01/30 16:49:34;;;;;;;14.57;3.67;;;21.70;62.80;;;;;;7811250;28;20257;-55
2022/01/30 16:53:19;;;;;;;18.17;3.55;;;21.70;63.10;;;;;;7811488;28;20185;-55
2022/01/30 16:57:05;;;;;;;17.13;4.20;;;21.80;63.40;;;;;;7811686;28;20182;-51
2022/01/30 17:00:51;;;;;;;18.85;3.65;;;21.80;63.90;;;;;;7810579;28;20268;-54
2022/01/30 17:04:36;;;;;;;17.65;3.55;;;21.90;64.10;;;;;;7811126;28;20182;-53
2022/01/30 17:08:23;;;;;;;13.50;3.83;;;22.00;64.10;;;;;;7810603;28;20210;-55
2022/01/30 17:16:19;;;;;;;10.98;3.20;;;22.30;63.90;;;;;;7811334;28;20175;-52
2022/01/30 17:20:05;;;;;;;9.60;3.05;;;22.40;63.80;;;;;;7814292;28;20218;-51
2022/01/30 17:23:51;;;;;;;14.82;3.50;;;22.50;63.50;;;;;;7837824;28;20177;-54
2022/01/30 17:27:36;;;;;;;10.93;3.30;;;22.70;63.50;;;;;;7841310;28;20178;-54
2022/01/30 17:31:22;;;;;;;15.98;3.50;;;22.80;63.40;;;;;;7841512;28;20194;-52
2022/01/30 17:35:08;;;;;;;21.08;4.10;;;22.80;63.20;;;;;;7842202;28;20174;-54
2022/01/30 17:38:53;;;;;;;11.30;3.60;;;23.00;63.20;;;;;;7840764;28;20687;-51
2022/01/30 17:42:39;;;;;;;14.98;4.35;;;23.00;63.10;;;;;;7842278;28;20700;-52
2022/01/30 17:46:25;;;;;;;10.23;3.47;;;23.00;63.00;;;;;;7840584;28;20190;-51
2022/01/30 17:50:12;;;;;;;14.82;3.75;;;23.00;62.90;;;;;;7840359;28;20551;-53
2022/01/30 17:53:58;;;;;;;11.82;4.18;;;23.00;63.00;;;;;;7840406;28;20652;-54
2022/01/30 17:57:44;;;;;;;12.13;3.80;;;23.00;63.00;;;;;;7840332;28;20565;-52
2022/01/30 18:01:29;;;;;;;14.80;4.03;;;23.00;62.90;;;;;;7840496;28;20294;-55
2022/01/30 18:05:16;;;;;;;14.57;3.83;;;23.00;63.00;;;;;;7840206;28;20178;-55
2022/01/30 18:09:02;;;;;;;16.50;3.90;;;23.00;63.00;;;;;;7830422;28;20207;-55
2022/01/30 18:12:48;;;;;;;24.83;4.72;;;22.90;63.10;;;;;;7807605;28;20245;-52
2022/01/30 18:16:33;;;;;;;13.70;3.92;;;22.90;63.30;;;;;;7807444;28;20186;-56
2022/01/30 18:20:19;;;;;;;15.07;3.95;;;22.90;63.70;;;;;;7812092;28;20630;-52
2022/01/30 18:24:05;;;;;;;14.55;4.32;;;22.90;64.10;;;;;;7837985;28;20189;-53
2022/01/30 18:27:51;;;;;;;16.45;4.60;;;22.90;64.20;;;;;;7837836;28;20545;-52
2022/01/30 18:31:36;;;;;;;19.17;4.57;;;22.90;64.40;;;;;;7838163;28;20225;-54
2022/01/30 18:35:22;;;;;;;15.02;5.00;;;22.90;64.70;;;;;;7837984;28;20189;-55
2022/01/30 18:39:20;;;;;;;12.25;4.18;;;22.90;64.50;;;;;;7837272;28;20221;-52
2022/01/30 18:43:06;;;;;;;14.30;4.15;;;22.90;64.60;;;;;;7837913;28;20746;-52
2022/01/30 18:46:52;;;;;;;16.58;4.50;;;22.90;64.60;;;;;;7837506;28;20572;-54
2022/01/30 18:50:38;;;;;;;13.75;4.35;;;22.90;64.80;;;;;;7829784;28;20249;-52
2022/01/30 18:54:23;;;;;;;30.60;4.47;;;22.90;64.90;;;;;;7822176;28;20243;-53
2022/01/30 18:58:09;;;;;;;42.00;5.57;;;22.90;64.80;;;;;;7838412;28;20584;-54
2022/01/30 19:01:54;;;;;;;40.58;5.03;;;22.80;64.50;;;;;;7838495;28;20178;-51
2022/01/30 19:05:45;;;;;;;32.00;5.63;;;22.80;64.70;;;;;;7838541;28;20182;-52
2022/01/30 19:09:31;;;;;;;49.65;5.25;;;22.80;64.90;;;;;;7838123;28;20198;-51
2022/01/30 19:13:18;;;;;;;44.05;6.28;;;22.70;65.20;;;;;;7838363;28;20662;-54
2022/01/30 19:17:04;;;;;;;37.25;5.78;;;22.70;65.20;;;;;;7811339;28;20653;-54
2022/01/30 19:20:50;;;;;;;30.63;4.93;;;22.70;65.40;;;;;;7806951;28;20283;-54
2022/01/30 19:24:36;;;;;;;22.80;5.05;;;22.70;65.40;;;;;;7817753;28;20188;-51
2022/01/30 19:28:21;;;;;;;39.22;5.53;;;22.60;65.70;;;;;;7815610;28;20213;-51
2022/01/30 19:32:07;;;;;;;30.65;5.63;;;22.70;65.70;;;;;;7807117;28;20182;-55
2022/01/30 19:35:53;;;;;;;29.98;5.07;;;22.60;65.70;;;;;;7806820;28;20182;-54
2022/01/30 19:39:38;;;;;;;39.03;5.57;;;22.70;65.60;;;;;;7806570;28;20215;-55
2022/01/30 19:43:24;;;;;;;31.95;6.28;;;22.70;65.80;;;;;;7806788;28;20182;-52
2022/01/30 19:47:09;;;;;;;37.80;5.45;;;22.70;65.80;;;;;;7808686;28;20205;-53
2022/01/30 19:50:55;;;;;;;22.77;5.60;;;22.70;65.80;;;;;;7812673;28;20649;-55
2022/01/30 19:54:41;;;;;;;22.08;4.72;;;22.70;65.70;;;;;;7820061;28;20674;-53
2022/01/30 19:58:27;;;;;;;24.63;5.28;;;22.80;65.90;;;;;;7843467;28;20553;-52
2022/01/30 20:02:12;;;;;;;23.40;4.78;;;22.80;66.00;;;;;;7843645;28;20208;-56
2022/01/30 20:05:58;;;;;;;21.38;4.57;;;22.80;65.90;;;;;;7843529;28;20640;-52
2022/01/30 20:09:43;;;;;;;18.38;4.85;;;22.90;66.00;;;;;;7843221;28;20198;-55
2022/01/30 20:13:29;;;;;;;15.00;4.47;;;23.00;66.00;;;;;;7843379;28;20178;-55
2022/01/30 20:17:14;;;;;;;17.45;4.13;;;23.00;66.00;;;;;;7843620;28;20177;-52
2022/01/30 20:21:00;;;;;;;17.35;4.15;;;23.10;66.10;;;;;;7814039;28;20210;-52
2022/01/30 20:24:45;;;;;;;23.90;4.22;;;23.10;66.10;;;;;;7812209;28;20181;-54
2022/01/30 20:28:31;;;;;;;20.63;3.78;;;23.10;66.10;;;;;;7811772;28;20209;-52
2022/01/30 20:32:19;;;;;;;19.73;4.00;;;23.10;66.00;;;;;;7811278;28;20175;-51
2022/01/30 20:36:05;;;;;;;24.05;4.72;;;23.00;65.60;;;;;;7820205;28;20660;-53
2022/01/30 20:39:51;;;;;;;28.40;5.07;;;22.90;66.20;;;;;;7812947;28;20627;-53
2022/01/30 20:43:36;;;;;;;21.20;4.32;;;22.90;66.20;;;;;;7810783;28;20175;-53
2022/01/30 20:47:22;;;;;;;20.63;3.78;;;22.80;66.00;;;;;;7810579;28;20234;-52